createdAt,value
2022-08-09T00:00:35.848Z,0.50
2022-08-09T00:04:05.620Z,1.05
2022-08-09T00:06:30.266Z,0.52
2022-08-09T00:09:17.780Z,0.50
2022-08-09T00:12:04.942Z,0.60
2022-08-09T00:14:47.962Z,0.60
2022-08-09T00:18:05.643Z,0.60
2022-08-09T00:20:38.255Z,0.60
2022-08-09T00:23:55.325Z,0.70
2022-08-09T00:26:32.669Z,0.50
2022-08-09T00:29:39.304Z,0.88
2022-08-09T00:32:26.872Z,0.43
2022-08-09T00:35:10.240Z,0.43
2022-08-09T00:37:53.260Z,0.55
2022-08-09T00:40:37.995Z,0.60
2022-08-09T00:44:19.181Z,0.57
2022-08-09T00:46:41.181Z,0.50
2022-08-09T00:49:28.093Z,0.68
2022-08-09T00:52:17.235Z,0.50
2022-08-09T00:55:01.434Z,0.60
2022-08-09T00:57:44.411Z,0.57
2022-08-09T01:00:35.495Z,0.50
2022-08-09T01:03:28.471Z,0.60
2022-08-09T01:06:21.411Z,0.50
2022-08-09T01:09:10.957Z,0.40
2022-08-09T01:11:57.712Z,0.50
2022-08-09T01:14:46.018Z,0.50
2022-08-09T01:17:39.257Z,0.50
2022-08-09T01:20:25.860Z,0.50
2022-08-09T01:24:01.143Z,0.40
2022-08-09T01:26:25.140Z,0.50
2022-08-09T01:29:11.121Z,0.55
2022-08-09T01:32:30.738Z,0.50
2022-08-09T01:35:06.878Z,0.43
2022-08-09T01:38:09.517Z,0.52
2022-08-09T01:41:03.085Z,0.60
2022-08-09T01:43:52.402Z,0.50
2022-08-09T01:46:39.543Z,0.50
2022-08-09T01:49:24.121Z,0.60
2022-08-09T01:52:08.432Z,0.50
2022-08-09T01:54:58.792Z,0.50
2022-08-09T01:57:45.733Z,0.82
2022-08-09T02:00:35.733Z,0.50
2022-08-09T02:03:20.485Z,0.75
2022-08-09T02:06:14.591Z,0.80
2022-08-09T02:08:59.838Z,0.52
2022-08-09T02:11:43.745Z,0.50
2022-08-09T02:14:28.264Z,0.52
2022-08-09T02:17:29.493Z,0.50
2022-08-09T02:20:26.773Z,0.50
2022-08-09T02:23:18.871Z,0.50
2022-08-09T02:26:02.668Z,0.70
2022-08-09T02:28:48.615Z,0.43
2022-08-09T02:31:35.665Z,0.60
2022-08-09T02:34:40.238Z,0.50
2022-08-09T02:37:31.610Z,0.50
2022-08-09T02:40:24.870Z,0.52
2022-08-09T02:43:13.488Z,0.57
2022-08-09T02:45:56.546Z,0.70
2022-08-09T02:48:40.001Z,0.50
2022-08-09T02:51:37.094Z,0.50
2022-08-09T02:54:25.200Z,0.50
2022-08-09T02:57:13.982Z,0.50
2022-08-09T03:00:25.415Z,0.63
2022-08-09T03:03:09.429Z,0.52
2022-08-09T03:05:55.437Z,0.45
2022-08-09T03:08:39.364Z,0.60
2022-08-09T03:11:29.904Z,0.70
2022-08-09T03:14:31.770Z,0.60
2022-08-09T03:17:16.406Z,0.55
2022-08-09T03:20:05.016Z,0.60
2022-08-09T03:22:56.862Z,0.73
2022-08-09T03:25:58.062Z,0.50
2022-08-09T03:28:44.135Z,0.73
2022-08-09T03:31:27.458Z,0.65
2022-08-09T03:34:10.415Z,0.55
2022-08-09T03:36:59.629Z,0.70
2022-08-09T03:39:48.640Z,0.50
2022-08-09T03:42:39.649Z,0.70
2022-08-09T03:46:02.930Z,0.60
2022-08-09T03:48:31.136Z,0.70
2022-08-09T03:51:56.198Z,0.47
2022-08-09T03:54:17.896Z,0.70
2022-08-09T03:57:19.978Z,0.60
2022-08-09T04:00:03.654Z,0.55
2022-08-09T04:02:57.434Z,0.73
2022-08-09T04:05:40.698Z,0.90
2022-08-09T04:08:28.938Z,0.70
2022-08-09T04:11:15.177Z,0.70
2022-08-09T04:14:54.177Z,0.73
2022-08-09T04:17:00.770Z,0.60
2022-08-09T04:19:51.161Z,0.68
2022-08-09T04:22:41.378Z,0.68
2022-08-09T04:25:27.126Z,0.70
2022-08-09T04:28:10.278Z,0.57
2022-08-09T04:30:55.218Z,0.70
2022-08-09T04:33:47.558Z,0.70
2022-08-09T04:36:37.401Z,0.70
2022-08-09T04:39:20.058Z,0.60
2022-08-09T04:42:03.036Z,0.73
2022-08-09T04:44:49.135Z,0.60
2022-08-09T04:47:45.139Z,0.65
2022-08-09T04:50:38.150Z,0.45
2022-08-09T04:53:22.629Z,0.70
2022-08-09T04:56:05.581Z,0.80
2022-08-09T04:58:48.479Z,0.80
2022-08-09T05:01:33.671Z,0.80
2022-08-09T05:04:17.195Z,0.70
2022-08-09T05:06:59.931Z,1.10
2022-08-09T05:09:49.436Z,0.82
2022-08-09T05:12:32.972Z,0.80
2022-08-09T05:15:38.359Z,0.82
2022-08-09T05:18:55.077Z,0.70
2022-08-09T05:21:24.575Z,0.90
2022-08-09T05:24:07.922Z,1.00
2022-08-09T05:26:54.521Z,1.05
2022-08-09T05:29:37.251Z,1.30
2022-08-09T05:32:20.105Z,1.10
2022-08-09T05:35:06.545Z,1.20
2022-08-09T05:37:51.089Z,1.30
2022-08-09T05:40:34.258Z,1.67
2022-08-09T05:43:18.402Z,1.77
2022-08-09T05:46:02.780Z,1.70
2022-08-09T05:48:45.494Z,1.90
2022-08-09T05:51:45.881Z,1.75
2022-08-09T05:54:29.234Z,1.80
2022-08-09T05:57:14.161Z,1.80
2022-08-09T06:00:01.418Z,2.22
2022-08-09T06:02:56.960Z,1.95
2022-08-09T06:05:57.803Z,2.47
2022-08-09T06:08:42.910Z,2.05
2022-08-09T06:11:40.999Z,2.20
2022-08-09T06:17:55.534Z,1.88
2022-08-09T06:20:39.694Z,1.77
2022-08-09T06:23:22.634Z,1.92
2022-08-09T06:26:28.252Z,2.10
2022-08-09T06:29:14.911Z,2.08
2022-08-09T06:32:08.628Z,1.98
2022-08-09T06:34:55.761Z,1.70
2022-08-09T06:37:49.871Z,2.15
2022-08-09T06:40:43.918Z,1.60
2022-08-09T06:43:27.458Z,2.00
2022-08-09T06:46:40.176Z,1.70
2022-08-09T06:49:29.061Z,1.50
2022-08-09T06:52:25.105Z,1.80
2022-08-09T06:55:10.220Z,2.00
2022-08-09T06:58:01.336Z,1.95
2022-08-09T07:00:58.396Z,2.20
2022-08-09T07:03:53.153Z,1.80
2022-08-09T07:06:38.412Z,1.58
2022-08-09T07:09:57.215Z,1.80
2022-08-09T07:12:38.460Z,1.67
2022-08-09T07:16:39.610Z,2.00
2022-08-09T07:18:29.332Z,1.40
2022-08-09T07:21:18.774Z,1.40
2022-08-09T07:24:02.866Z,1.50
2022-08-09T07:26:50.733Z,1.50
2022-08-09T07:29:38.062Z,1.50
2022-08-09T07:32:33.446Z,1.40
2022-08-09T07:35:19.115Z,1.50
2022-08-09T07:38:02.104Z,1.33
2022-08-09T07:41:10.025Z,1.23
2022-08-09T07:43:50.032Z,1.50
2022-08-09T07:46:43.070Z,1.67
2022-08-09T07:49:25.939Z,1.50
2022-08-09T07:52:17.837Z,1.55
2022-08-09T07:55:00.984Z,1.08
2022-08-09T07:57:48.625Z,1.38
2022-08-09T08:00:36.375Z,1.20
2022-08-09T08:03:21.017Z,1.23
2022-08-09T08:06:21.162Z,1.30
2022-08-09T08:09:34.481Z,1.38
2022-08-09T08:12:27.440Z,1.25
2022-08-09T08:15:12.098Z,1.45
2022-08-09T08:17:57.924Z,1.10
2022-08-09T08:20:45.298Z,1.00
2022-08-09T08:23:28.627Z,1.00
2022-08-09T08:26:17.783Z,1.10
2022-08-09T08:29:09.504Z,1.00
2022-08-09T08:32:03.100Z,1.52
2022-08-09T08:34:47.372Z,1.20
2022-08-09T08:37:41.524Z,1.00
2022-08-09T08:40:43.719Z,0.70
2022-08-09T08:43:33.163Z,1.10
2022-08-09T08:46:32.965Z,0.73
2022-08-09T08:49:19.128Z,0.93
2022-08-09T08:52:04.222Z,0.90
2022-08-09T08:54:57.385Z,1.05
2022-08-09T08:57:40.721Z,0.98
2022-08-09T09:00:27.660Z,0.85
2022-08-09T09:03:32.908Z,1.02
2022-08-09T09:06:18.792Z,1.02
2022-08-09T09:09:01.793Z,1.13
2022-08-09T09:11:51.469Z,0.95
2022-08-09T09:14:35.915Z,0.70
2022-08-09T09:17:21.071Z,0.95
2022-08-09T09:20:07.492Z,0.95
2022-08-09T09:22:51.279Z,1.15
2022-08-09T09:26:01.464Z,1.02
2022-08-09T09:29:04.208Z,0.65
2022-08-09T09:32:03.828Z,0.98
2022-08-09T09:35:03.166Z,0.80
2022-08-09T09:37:54.397Z,0.77
2022-08-09T09:40:46.203Z,0.65
2022-08-09T09:43:29.265Z,1.00
2022-08-09T09:46:46.152Z,0.73
2022-08-09T09:50:06.736Z,0.90
2022-08-09T09:52:56.899Z,0.70
2022-08-09T09:55:57.549Z,0.77
2022-08-09T09:58:47.482Z,0.70
2022-08-09T10:01:38.264Z,0.90
2022-08-09T10:04:31.082Z,0.90
2022-08-09T10:07:23.946Z,0.80
2022-08-09T10:10:08.997Z,1.00
2022-08-09T10:12:55.287Z,0.70
2022-08-09T10:16:09.470Z,0.90
2022-08-09T10:18:53.403Z,1.80
2022-08-09T10:21:45.754Z,0.70
2022-08-09T10:24:36.034Z,0.93
2022-08-09T10:27:22.200Z,0.90
2022-08-09T10:31:40.167Z,0.70
2022-08-09T10:33:29.877Z,0.95
2022-08-09T10:36:20.499Z,0.80
2022-08-09T10:39:03.715Z,0.75
2022-08-09T10:41:57.150Z,0.80
2022-08-09T10:44:41.006Z,0.90
2022-08-09T10:48:14.248Z,0.80
2022-08-09T10:51:02.225Z,0.70
2022-08-09T10:53:59.695Z,0.80
2022-08-09T10:56:48.965Z,0.50
2022-08-09T10:59:55.512Z,0.57
2022-08-09T11:03:14.569Z,0.70
2022-08-09T11:06:03.725Z,0.70
2022-08-09T11:08:53.150Z,0.70
2022-08-09T11:11:51.712Z,0.75
2022-08-09T11:14:38.352Z,0.82
2022-08-09T11:18:02.860Z,0.63
2022-08-09T11:20:50.088Z,0.70
2022-08-09T11:23:59.818Z,0.85
2022-08-09T11:26:47.387Z,0.70
2022-08-09T11:30:04.072Z,0.52
2022-08-09T11:32:52.615Z,0.73
2022-08-09T11:35:50.031Z,0.60
2022-08-09T11:38:41.231Z,0.90
2022-08-09T11:41:37.523Z,0.68
2022-08-09T11:44:22.348Z,1.60
2022-08-09T11:47:11.008Z,0.80
2022-08-09T11:50:54.129Z,0.60
2022-08-09T11:54:00.721Z,0.60
2022-08-09T11:56:42.034Z,0.70
2022-08-09T11:59:33.744Z,0.57
2022-08-09T12:02:37.350Z,0.50
2022-08-09T12:05:23.113Z,0.73
2022-08-09T12:08:12.373Z,0.80
2022-08-09T12:10:57.419Z,0.80
2022-08-09T12:14:08.218Z,0.52
2022-08-09T12:16:47.069Z,0.50
2022-08-09T12:19:35.563Z,0.70
2022-08-09T12:22:23.427Z,0.60
2022-08-09T12:25:12.379Z,0.70
2022-08-09T12:29:11.738Z,0.65
2022-08-09T12:31:58.634Z,1.15
2022-08-09T12:34:34.550Z,0.80
2022-08-09T12:37:23.553Z,0.70
2022-08-09T12:40:11.751Z,0.70
2022-08-09T12:42:55.358Z,0.80
2022-08-09T12:45:38.888Z,0.70
2022-08-09T12:48:31.223Z,0.70
2022-08-09T12:51:52.400Z,0.68
2022-08-09T12:54:29.037Z,0.60
2022-08-09T12:57:13.899Z,0.70
2022-08-09T13:00:13.831Z,0.80
2022-08-09T13:03:04.459Z,0.88
2022-08-09T13:05:51.649Z,0.70
2022-08-09T13:09:26.039Z,0.80
2022-08-09T13:12:13.279Z,0.70
2022-08-09T13:15:07.147Z,0.70
2022-08-09T13:18:06.191Z,0.70
2022-08-09T13:22:33.034Z,0.60
2022-08-09T13:24:48.339Z,0.60
2022-08-09T13:27:29.272Z,1.00
2022-08-09T13:31:10.942Z,0.70
2022-08-09T13:33:52.169Z,0.70
2022-08-09T13:36:40.927Z,0.70
2022-08-09T13:41:51.300Z,0.45
2022-08-09T13:42:30.829Z,0.70
2022-08-09T13:45:15.066Z,0.70
2022-08-09T13:48:01.047Z,0.70
2022-08-09T13:50:48.514Z,0.80
2022-08-09T13:53:42.924Z,0.60
2022-08-09T13:56:26.489Z,0.80
2022-08-09T13:59:12.171Z,0.88
2022-08-09T14:02:03.951Z,0.68
2022-08-09T14:04:47.624Z,0.50
2022-08-09T14:07:42.436Z,0.55
2022-08-09T14:10:37.254Z,0.68
2022-08-09T14:14:24.068Z,0.63
2022-08-09T14:16:33.078Z,0.57
2022-08-09T14:19:17.841Z,0.70
2022-08-09T14:22:03.515Z,0.55
2022-08-09T14:24:53.256Z,0.70
2022-08-09T14:27:56.562Z,0.60
2022-08-09T14:30:41.944Z,0.65
2022-08-09T14:33:26.849Z,0.70
2022-08-09T14:36:21.172Z,0.50
2022-08-09T14:39:08.700Z,0.70
2022-08-09T14:41:53.871Z,0.50
2022-08-09T14:44:48.666Z,0.50
2022-08-09T14:47:46.652Z,0.57
2022-08-09T14:50:44.369Z,0.50
2022-08-09T14:53:28.512Z,0.60
2022-08-09T14:56:22.294Z,0.75
2022-08-09T14:59:14.420Z,0.80
2022-08-09T15:01:57.455Z,0.50
2022-08-09T15:04:41.505Z,0.63
2022-08-09T15:07:27.406Z,0.63
2022-08-09T15:10:14.386Z,0.60
2022-08-09T15:12:58.776Z,0.45
2022-08-09T15:15:44.293Z,0.43
2022-08-09T15:18:27.206Z,0.82
2022-08-09T15:21:56.828Z,0.63
2022-08-09T15:24:29.346Z,0.60
2022-08-09T15:27:12.113Z,0.85
2022-08-09T15:30:55.570Z,0.70
2022-08-09T15:33:07.234Z,0.70
2022-08-09T15:36:02.141Z,0.50
2022-08-09T15:38:48.558Z,0.50
2022-08-09T15:41:34.143Z,0.60
2022-08-09T15:44:19.829Z,0.60
2022-08-09T15:47:05.902Z,0.85
2022-08-09T15:50:03.863Z,0.88
2022-08-09T15:52:55.082Z,0.70
2022-08-09T15:55:58.945Z,0.75
2022-08-09T15:59:19.538Z,0.60
2022-08-09T16:02:02.939Z,0.60
2022-08-09T16:04:48.406Z,0.70
2022-08-09T16:07:38.847Z,0.95
2022-08-09T16:10:55.030Z,0.70
2022-08-09T16:14:02.754Z,0.70
2022-08-09T16:16:31.794Z,0.80
2022-08-09T16:19:14.911Z,0.90
2022-08-09T16:21:57.733Z,0.77
2022-08-09T16:24:40.563Z,0.80
2022-08-09T16:27:25.156Z,0.95
2022-08-09T16:30:15.397Z,0.90
2022-08-09T16:33:10.338Z,0.75
2022-08-09T16:35:58.449Z,0.90
2022-08-09T16:38:45.041Z,0.80
2022-08-09T16:42:02.093Z,1.13
2022-08-09T16:44:38.747Z,0.93
2022-08-09T16:48:40.587Z,0.82
2022-08-09T16:50:33.785Z,0.75
2022-08-09T16:53:20.273Z,1.17
2022-08-09T16:56:09.968Z,0.95
2022-08-09T16:59:10.786Z,0.70
2022-08-09T17:01:53.933Z,1.15
2022-08-09T17:04:45.527Z,1.05
2022-08-09T17:08:45.797Z,0.65
2022-08-09T17:10:35.031Z,0.70
2022-08-09T17:13:19.702Z,1.02
2022-08-09T17:16:05.986Z,0.80
2022-08-09T17:18:50.744Z,0.80
2022-08-09T17:21:33.815Z,0.90
2022-08-09T17:24:20.393Z,0.85
2022-08-09T17:27:15.317Z,0.95
2022-08-09T17:29:58.605Z,0.70
2022-08-09T17:32:45.511Z,0.70
2022-08-09T17:35:29.958Z,1.02
2022-08-09T17:38:25.298Z,0.77
2022-08-09T17:41:39.019Z,0.80
2022-08-09T17:44:38.038Z,0.70
2022-08-09T17:47:27.971Z,0.90
2022-08-09T17:50:25.114Z,0.90
2022-08-09T17:53:21.760Z,0.75
2022-08-09T17:56:09.344Z,0.90
2022-08-09T17:58:59.643Z,0.73
2022-08-09T18:02:07.168Z,0.80
2022-08-09T18:04:47.541Z,0.90
2022-08-09T18:07:34.451Z,0.80
2022-08-09T18:10:17.434Z,0.80
2022-08-09T18:13:39.525Z,0.70
2022-08-09T18:16:08.611Z,1.00
2022-08-09T18:18:56.081Z,0.95
2022-08-09T18:21:40.934Z,0.98
2022-08-09T18:24:27.456Z,0.80
2022-08-09T18:27:10.429Z,1.00
2022-08-09T18:30:39.325Z,0.90
2022-08-09T18:33:00.621Z,0.88
2022-08-09T18:35:59.136Z,0.75
2022-08-09T18:38:43.356Z,0.90
2022-08-09T18:41:27.635Z,1.00
2022-08-09T18:44:13.753Z,0.88
2022-08-09T18:47:03.657Z,0.80
2022-08-09T18:49:52.756Z,1.13
2022-08-09T18:52:39.424Z,0.70
2022-08-09T18:55:45.339Z,0.90
2022-08-09T18:58:33.024Z,0.80
2022-08-09T19:01:16.721Z,0.70
2022-08-09T19:04:08.390Z,0.80
2022-08-09T19:06:53.078Z,0.80
2022-08-09T19:10:13.727Z,0.80
2022-08-09T19:12:41.177Z,0.80
2022-08-09T19:15:28.676Z,0.90
2022-08-09T19:18:17.065Z,0.90
2022-08-09T19:21:18.919Z,0.90
2022-08-09T19:24:36.524Z,0.77
2022-08-09T19:27:15.210Z,1.00
2022-08-09T19:30:22.636Z,0.70
2022-08-09T19:33:25.527Z,0.80
2022-08-09T19:36:11.639Z,0.73
2022-08-09T19:38:55.147Z,1.10
2022-08-09T19:41:42.401Z,1.00
2022-08-09T19:44:25.303Z,1.00
2022-08-09T19:47:08.295Z,1.00
2022-08-09T19:50:06.996Z,0.70
2022-08-09T19:52:56.946Z,0.80
2022-08-09T19:56:02.075Z,0.70
2022-08-09T19:58:56.188Z,0.70
2022-08-09T20:02:03.341Z,0.70
2022-08-09T20:04:55.072Z,0.73
2022-08-09T20:07:58.785Z,0.50
2022-08-09T20:10:46.118Z,0.80
2022-08-09T20:13:36.795Z,0.63
2022-08-09T20:16:32.805Z,0.70
2022-08-09T20:19:49.544Z,0.50
2022-08-09T20:22:24.237Z,0.80
2022-08-09T20:25:22.757Z,0.80
2022-08-09T20:28:06.093Z,0.63
2022-08-09T20:30:50.056Z,0.80
2022-08-09T20:33:41.228Z,0.50
2022-08-09T20:36:27.487Z,0.80
2022-08-09T20:39:28.877Z,0.70
2022-08-09T20:42:13.821Z,0.68
2022-08-09T20:45:56.746Z,0.90
2022-08-09T20:47:59.451Z,0.60
2022-08-09T20:50:47.192Z,0.80
2022-08-09T20:53:37.619Z,0.63
2022-08-09T20:56:22.066Z,0.80
2022-08-09T20:59:09.986Z,0.73
2022-08-09T21:01:53.337Z,0.70
2022-08-09T21:05:54.030Z,0.80
2022-08-09T21:07:40.921Z,0.70
2022-08-09T21:10:27.314Z,0.60
2022-08-09T21:13:15.469Z,0.63
2022-08-09T21:15:58.273Z,0.50
2022-08-09T21:19:01.695Z,0.70
2022-08-09T21:21:53.743Z,0.73
2022-08-09T21:25:02.672Z,0.90
2022-08-09T21:27:51.065Z,0.75
2022-08-09T21:30:37.046Z,0.63
2022-08-09T21:33:23.606Z,0.60
2022-08-09T21:36:06.938Z,0.75
2022-08-09T21:38:58.608Z,0.70
2022-08-09T21:42:05.076Z,0.60
2022-08-09T21:44:46.830Z,0.70
2022-08-09T21:47:31.093Z,0.80
2022-08-09T21:50:17.656Z,0.77
2022-08-09T21:53:06.328Z,0.70
2022-08-09T21:55:58.578Z,0.80
2022-08-09T21:58:42.849Z,0.73
2022-08-09T22:01:58.865Z,0.60
2022-08-09T22:04:55.573Z,0.63
2022-08-09T22:07:39.861Z,0.80
2022-08-09T22:10:34.632Z,0.50
2022-08-09T22:13:38.313Z,0.80
2022-08-09T22:16:28.820Z,0.60
2022-08-09T22:19:23.909Z,0.63
2022-08-09T22:22:14.834Z,0.50
2022-08-09T22:26:06.707Z,0.63
2022-08-09T22:28:07.251Z,0.60
2022-08-09T22:30:50.299Z,0.82
2022-08-09T22:33:37.646Z,0.40
2022-08-09T22:36:37.398Z,0.70
2022-08-09T22:39:55.628Z,0.50
2022-08-09T22:42:32.475Z,0.73
2022-08-09T22:48:14.133Z,0.55
2022-08-09T22:48:35.981Z,0.60
2022-08-09T22:51:38.188Z,0.80
2022-08-09T22:54:21.599Z,0.47
2022-08-09T22:57:05.047Z,0.80
2022-08-09T22:59:57.827Z,0.77
2022-08-09T23:02:45.124Z,0.47
2022-08-09T23:05:30.677Z,0.55
2022-08-09T23:08:34.736Z,0.50
2022-08-09T23:11:27.003Z,0.60
2022-08-09T23:14:17.532Z,0.70
2022-08-09T23:17:06.172Z,0.60
2022-08-09T23:20:00.776Z,0.52
2022-08-09T23:22:50.425Z,0.60
2022-08-09T23:25:34.605Z,0.60
2022-08-09T23:28:17.384Z,0.60
2022-08-09T23:31:00.412Z,0.50
2022-08-09T23:33:43.147Z,0.50
2022-08-09T23:36:29.218Z,0.45
2022-08-09T23:39:12.122Z,0.60
2022-08-09T23:41:56.280Z,0.60
2022-08-09T23:44:39.334Z,0.70
2022-08-09T23:47:22.128Z,0.60
2022-08-09T23:50:05.353Z,0.70
2022-08-09T23:52:48.113Z,0.63
2022-08-09T23:55:33.033Z,0.73
2022-08-09T23:58:26.090Z,0.60
